Time;durP1;ratioP1;P1;durP2;ratioP2;P2;SDS_P1;SDS_P2;PMS_P1;PMS_P2;Temp;Humidity;BMP_temperature;BMP_pressure;BME280_temperature;BME280_humidity;BME280_pressure;Samples;Min_cycle;Max_cycle;Signal;HPM_P1;HPM_P2
2021/03/25 00:01:43;;;;;;;18.90;12.07;;;;;;;0.41;54.57;99950.80;1679249;85;21205;-59
2021/03/25 00:04:11;;;;;;;12.50;8.33;;;;;;;0.33;54.75;99949.06;1696275;84;21130;-62
2021/03/25 00:06:46;;;;;;;15.90;10.27;;;;;;;0.28;54.96;99943.97;1668926;84;21289;-64
2021/03/25 00:09:24;;;;;;;23.33;9.83;;;;;;;0.23;55.10;99943.19;1667656;85;21200;-63
2021/03/25 00:11:52;;;;;;;14.60;8.27;;;;;;;0.23;55.25;99947.65;1643247;87;21208;-64
2021/03/25 00:14:19;;;;;;;16.17;9.67;;;;;;;0.17;55.58;99941.23;1652936;85;21647;-60
2021/03/25 00:16:47;;;;;;;15.83;7.57;;;;;;;0.10;55.91;99942.10;1670375;85;21606;-64
2021/03/25 00:19:17;;;;;;;13.70;7.87;;;;;;;0.05;56.05;99936.55;1672470;84;21044;-64
2021/03/25 00:21:44;;;;;;;17.27;8.07;;;;;;;0.07;55.97;99941.14;1670180;85;21177;-65
2021/03/25 00:24:18;;;;;;;18.57;9.57;;;;;;;0.05;55.98;99934.70;1640349;87;21190;-64
2021/03/25 00:26:45;;;;;;;10.50;7.22;;;;;;;-0.01;56.10;99935.42;1653248;86;21095;-61
2021/03/25 00:29:14;;;;;;;11.03;8.00;;;;;;;0.00;56.18;99941.84;1670699;85;21642;-61
2021/03/25 00:31:43;;;;;;;16.73;8.97;;;;;;;0.02;56.09;99939.03;1640341;87;21421;-61
2021/03/25 00:34:11;;;;;;;11.60;8.83;;;;;;;0.03;56.18;99947.29;1652976;86;21655;-64
2021/03/25 00:36:40;;;;;;;11.03;8.40;;;;;;;0.04;56.14;99940.19;1677065;84;21797;-62
2021/03/25 00:39:10;;;;;;;8.87;5.77;;;;;;;0.06;56.05;99935.03;1671534;84;21193;-65
2021/03/25 00:41:38;;;;;;;8.67;6.17;;;;;;;0.09;55.97;99939.98;1687047;84;21261;-64
2021/03/25 00:44:08;;;;;;;9.37;7.23;;;;;;;0.07;55.87;99930.07;1670371;85;21373;-64
2021/03/25 00:46:35;;;;;;;8.37;6.53;;;;;;;0.10;55.84;99931.03;1670303;85;21106;-64
2021/03/25 00:49:04;;;;;;;10.13;6.50;;;;;;;0.07;56.07;99945.94;1670118;85;21630;-62
2021/03/25 00:51:32;;;;;;;8.17;6.00;;;;;;;0.04;56.11;99941.02;1680534;84;21216;-67
2021/03/25 00:54:01;;;;;;;8.17;6.20;;;;;;;0.04;56.10;99930.93;1669026;84;21687;-62
2021/03/25 00:56:28;;;;;;;13.30;7.43;;;;;;;0.02;56.14;99937.70;1687589;84;21160;-62
2021/03/25 00:58:56;;;;;;;10.60;7.10;;;;;;;0.07;56.09;99935.36;1668300;85;21160;-64
2021/03/25 01:01:24;;;;;;;15.03;7.30;;;;;;;0.07;55.96;99931.39;1655313;86;21178;-64
2021/03/25 01:03:52;;;;;;;14.03;7.77;;;;;;;0.08;55.99;99934.86;1670306;84;21066;-63
2021/03/25 01:06:19;;;;;;;12.57;6.97;;;;;;;0.08;56.04;99931.73;1670392;85;21185;-62
2021/03/25 01:08:46;;;;;;;15.57;6.77;;;;;;;0.10;56.09;99939.45;1670331;84;21415;-62
2021/03/25 01:11:19;;;;;;;8.93;5.90;;;;;;;0.09;56.01;99936.02;1670584;85;21207;-64
2021/03/25 01:13:55;;;;;;;7.47;5.23;;;;;;;0.08;56.04;99934.86;1643113;86;21547;-62
2021/03/25 01:16:30;;;;;;;12.90;7.00;;;;;;;0.08;56.03;99936.19;1657594;85;21168;-62
2021/03/25 01:18:59;;;;;;;13.17;7.40;;;;;;;0.07;56.00;99939.82;1657729;86;21651;-62
2021/03/25 01:21:29;;;;;;;17.40;7.90;;;;;;;0.07;56.05;99939.82;1657512;86;21587;-67
2021/03/25 01:23:58;;;;;;;11.63;6.83;;;;;;;0.00;56.08;99947.13;1668739;84;21069;-61
2021/03/25 01:26:27;;;;;;;12.87;7.23;;;;;;;-0.03;56.26;99940.05;1670245;85;21209;-61
2021/03/25 01:28:55;;;;;;;14.20;7.03;;;;;;;-0.06;56.38;99941.73;1670344;84;21093;-60
2021/03/25 01:31:23;;;;;;;10.67;6.97;;;;;;;-0.10;56.56;99943.91;1670103;85;21196;-66
2021/03/25 01:33:51;;;;;;;9.80;6.57;;;;;;;-0.09;56.73;99940.25;1665272;86;21369;-64
2021/03/25 01:36:20;;;;;;;15.23;9.70;;;;;;;-0.21;57.09;99945.63;1666807;85;21188;-64
2021/03/25 01:38:50;;;;;;;12.33;6.97;;;;;;;-0.28;57.34;99938.55;1670262;85;21224;-64
2021/03/25 01:41:20;;;;;;;11.20;5.97;;;;;;;-0.26;57.36;99933.92;1669814;85;21204;-63
2021/03/25 01:43:48;;;;;;;8.27;5.13;;;;;;;-0.27;57.41;99933.59;1671836;84;21145;-64
2021/03/25 01:46:35;;;;;;;10.80;6.10;;;;;;;-0.34;57.47;99935.30;1670255;85;21404;-65
2021/03/25 01:49:12;;;;;;;12.47;7.97;;;;;;;-0.34;57.50;99927.38;1639410;87;21242;-64
2021/03/25 01:52:08;;;;;;;9.53;7.67;;;;;;;-0.31;57.50;99936.27;1650834;86;21188;-64
2021/03/25 01:55:05;;;;;;;10.30;6.00;;;;;;;-0.31;57.55;99945.52;1646448;87;21197;-63
2021/03/25 01:58:17;;;;;;;12.87;7.03;;;;;;;-0.31;57.64;99936.27;1646362;87;21217;-62
2021/03/25 02:01:19;;;;;;;8.37;5.60;;;;;;;-0.35;57.71;99941.09;1646513;87;22285;-63
2021/03/25 02:04:04;;;;;;;8.98;5.25;;;;;;;-0.34;57.73;99934.81;1646318;87;21216;-61
2021/03/25 02:06:39;;;;;;;12.03;5.87;;;;;;;-0.38;57.75;99930.84;1663529;85;21184;-62
2021/03/25 02:09:22;;;;;;;7.40;5.70;;;;;;;-0.37;57.71;99942.23;1644272;85;21200;-63
2021/03/25 02:12:18;;;;;;;9.63;6.40;;;;;;;-0.34;57.72;99930.02;1846986;76;26576;-63
2021/03/25 02:15:10;;;;;;;9.57;6.70;;;;;;;-0.34;57.64;99936.62;1786167;79;21015;-62
2021/03/25 02:17:50;;;;;;;10.07;6.97;;;;;;;-0.34;57.55;99933.98;1785807;79;21357;-64
2021/03/25 02:20:31;;;;;;;5.80;5.10;;;;;;;-0.42;57.77;99930.88;1814063;79;21007;-61
2021/03/25 02:23:14;;;;;;;9.47;5.43;;;;;;;-0.48;58.08;99925.77;1817015;79;20998;-62
2021/03/25 02:26:05;;;;;;;15.27;6.60;;;;;;;-0.47;58.18;99933.20;1794621;79;21006;-62
2021/03/25 02:28:45;;;;;;;7.87;4.20;;;;;;;-0.52;58.17;99935.54;1807707;79;21161;-62
2021/03/25 02:31:19;;;;;;;11.07;6.13;;;;;;;-0.58;58.23;99931.80;1779281;79;21351;-62
2021/03/25 02:33:52;;;;;;;6.87;4.80;;;;;;;-0.58;58.25;99930.48;1766847;81;21054;-61
2021/03/25 02:36:28;;;;;;;9.83;6.57;;;;;;;-0.53;58.28;99928.11;1759849;80;21011;-63
2021/03/25 02:39:05;;;;;;;11.30;6.83;;;;;;;-0.54;58.29;99925.16;1753681;81;21609;-61
2021/03/25 02:41:42;;;;;;;10.00;6.80;;;;;;;-0.58;58.39;99934.44;1766073;80;21003;-60
2021/03/25 02:44:13;;;;;;;6.57;4.87;;;;;;;-0.60;58.49;99922.38;1768999;79;21250;-60
2021/03/25 02:46:50;;;;;;;8.23;5.67;;;;;;;-0.59;58.43;99931.46;1758764;80;21176;-59
2021/03/25 02:49:20;;;;;;;10.10;5.67;;;;;;;-0.62;58.58;99930.47;1712755;82;21062;-63
2021/03/25 02:52:12;;;;;;;11.43;6.57;;;;;;;-0.63;58.63;99930.16;1714511;82;21666;-60
2021/03/25 02:54:41;;;;;;;7.87;4.60;;;;;;;-0.68;58.77;99924.58;1746829;82;21227;-58
2021/03/25 02:57:17;;;;;;;9.03;6.23;;;;;;;-0.72;58.95;99925.09;1731995;82;21202;-59
2021/03/25 02:59:47;;;;;;;10.10;5.83;;;;;;;-0.71;58.82;99932.00;1784351;80;21058;-60
2021/03/25 03:02:33;;;;;;;8.27;4.53;;;;;;;-0.71;58.88;99932.82;1756919;80;21034;-59
2021/03/25 03:05:12;;;;;;;9.50;5.53;;;;;;;-0.77;59.00;99932.20;1784573;80;21469;-60
2021/03/25 03:08:10;;;;;;;15.23;7.53;;;;;;;-0.72;58.93;99926.41;1756337;80;21621;-60
2021/03/25 03:10:52;;;;;;;12.47;6.60;;;;;;;-0.80;59.12;99927.74;1782593;80;21199;-58
2021/03/25 03:13:24;;;;;;;15.70;8.57;;;;;;;-0.78;59.20;99927.09;1767203;80;21611;-57
2021/03/25 03:16:06;;;;;;;25.80;12.00;;;;;;;-0.74;59.15;99927.89;1724350;81;21198;-58
2021/03/25 03:18:46;;;;;;;10.87;6.33;;;;;;;-0.73;59.12;99929.55;1754614;81;21117;-60
2021/03/25 03:21:26;;;;;;;12.83;7.13;;;;;;;-0.78;59.15;99933.20;1742379;82;21183;-60
2021/03/25 03:23:57;;;;;;;22.10;12.40;;;;;;;-0.86;59.45;99937.69;1785926;80;22140;-59
2021/03/25 03:26:33;;;;;;;27.20;12.87;;;;;;;-0.80;59.35;99931.70;1769963;80;21120;-61
2021/03/25 03:29:05;;;;;;;26.13;12.90;;;;;;;-0.76;59.25;99930.36;1742692;80;21145;-59
2021/03/25 03:32:13;;;;;;;25.03;12.17;;;;;;;-0.76;59.23;99936.47;1786348;79;21559;-58
2021/03/25 03:34:56;;;;;;;15.97;9.47;;;;;;;-0.79;59.25;99938.14;1786432;80;21592;-60
2021/03/25 03:37:38;;;;;;;13.70;7.25;;;;;;;-0.82;59.25;99932.39;1787599;80;21196;-60
2021/03/25 03:40:21;;;;;;;8.60;5.53;;;;;;;-0.82;59.52;99938.98;1809173;77;27173;-58
2021/03/25 03:42:54;;;;;;;11.63;7.43;;;;;;;-0.94;59.66;99932.75;1750668;80;20951;-61
2021/03/25 03:45:23;;;;;;;10.33;6.53;;;;;;;-0.99;59.84;99937.71;1729354;82;21378;-60
2021/03/25 03:47:59;;;;;;;;;;;;;;;-0.99;59.92;99936.39;1696191;84;21535;-60
2021/03/25 03:50:31;;;;;;;;;;;;;;;-0.99;59.87;99935.56;1707746;82;20130;-59
2021/03/25 03:52:59;;;;;;;11.70;5.77;;;;;;;-0.99;59.85;99945.63;1711577;83;20171;-59
2021/03/25 03:55:29;;;;;;;6.23;4.03;;;;;;;-0.94;59.71;99934.56;1697563;83;20986;-58
2021/03/25 03:58:26;;;;;;;10.43;5.37;;;;;;;-0.95;59.61;99939.50;1722343;83;21390;-60
2021/03/25 04:01:07;;;;;;;8.37;5.33;;;;;;;-0.95;59.57;99931.59;1716831;83;21066;-60
2021/03/25 04:03:44;;;;;;;8.10;6.03;;;;;;;-0.91;59.56;99940.81;1699239;84;21050;-60
2021/03/25 04:06:38;;;;;;;9.43;6.27;;;;;;;-0.89;59.41;99940.98;1699535;84;21176;-60
2021/03/25 04:09:47;;;;;;;9.13;5.80;;;;;;;-0.90;59.37;99940.64;1636982;85;21185;-60
2021/03/25 04:12:22;;;;;;;10.00;5.80;;;;;;;-0.87;59.39;99944.78;1709592;82;21480;-60
2021/03/25 04:15:05;;;;;;;12.75;6.70;;;;;;;-0.93;59.38;99938.36;1728174;82;21164;-59
2021/03/25 04:17:38;;;;;;;9.80;6.67;;;;;;;-0.88;59.48;99935.20;1702473;84;21064;-61
2021/03/25 04:20:13;;;;;;;14.80;6.53;;;;;;;-0.91;59.40;99949.55;1711330;82;21644;-60
2021/03/25 04:22:55;;;;;;;9.37;5.97;;;;;;;-0.90;59.47;99947.25;1703080;84;21626;-61
2021/03/25 04:25:43;;;;;;;13.03;6.73;;;;;;;-0.87;59.49;99953.20;1724332;82;21263;-62
2021/03/25 04:28:16;;;;;;;11.30;4.40;;;;;;;-0.85;59.63;99959.11;1733423;81;21156;-61
2021/03/25 04:30:47;;;;;;;10.37;6.00;;;;;;;-0.92;59.69;99948.42;1709957;82;21149;-59
2021/03/25 04:33:18;;;;;;;8.37;5.67;;;;;;;-0.97;59.83;99955.53;1704432;84;21164;-58
2021/03/25 04:35:46;;;;;;;9.93;5.87;;;;;;;-0.97;59.77;99955.53;1702248;84;21113;-60
2021/03/25 04:38:18;;;;;;;10.30;6.27;;;;;;;-0.90;59.68;99955.66;1705030;83;22175;-64
2021/03/25 04:40:47;;;;;;;9.23;6.03;;;;;;;-0.89;59.60;99953.35;1671743;84;21193;-61
2021/03/25 04:43:21;;;;;;;9.43;6.20;;;;;;;-0.83;59.56;99951.86;1696536;84;21197;-62
2021/03/25 04:46:02;;;;;;;8.07;5.30;;;;;;;-0.81;59.44;99953.31;1695604;83;21212;-60
2021/03/25 04:48:32;;;;;;;;;;;;;;;-0.83;59.37;99959.28;1673848;85;21179;-61
2021/03/25 04:51:08;;;;;;;9.20;4.77;;;;;;;-0.77;59.40;99957.78;1696542;83;21208;-63
2021/03/25 04:53:38;;;;;;;10.20;5.43;;;;;;;-0.73;59.18;99958.59;1673071;85;21161;-61
2021/03/25 04:56:13;;;;;;;11.40;6.23;;;;;;;-0.70;58.96;99955.59;1670960;85;21156;-63
2021/03/25 04:58:55;;;;;;;17.00;8.07;;;;;;;-0.67;58.93;99956.56;1674080;84;21196;-59
2021/03/25 05:01:26;;;;;;;18.70;9.70;;;;;;;-0.60;58.92;99954.08;1677328;85;21257;-60
2021/03/25 05:04:03;;;;;;;16.23;7.87;;;;;;;-0.54;58.76;99958.19;1682427;85;21254;-60
2021/03/25 05:06:52;;;;;;;16.27;8.43;;;;;;;-0.54;58.50;99956.04;1711629;83;21176;-60
2021/03/25 05:09:21;;;;;;;20.20;9.03;;;;;;;-0.51;58.58;99960.97;1689888;84;21185;-62
2021/03/25 05:11:49;;;;;;;15.03;7.67;;;;;;;-0.48;58.55;99964.61;1670855;85;21252;-60
2021/03/25 05:14:22;;;;;;;19.93;8.83;;;;;;;-0.45;58.50;99970.86;1674040;85;21188;-61
2021/03/25 05:16:55;;;;;;;11.33;6.62;;;;;;;-0.39;58.30;99963.57;1642332;87;21260;-59
2021/03/25 05:19:43;;;;;;;10.65;6.55;;;;;;;-0.36;58.11;99970.31;1673493;85;21197;-60
2021/03/25 05:22:32;;;;;;;9.93;5.80;;;;;;;-0.30;57.88;99972.27;1684610;85;21035;-58
2021/03/25 05:25:24;;;;;;;7.53;4.07;;;;;;;-0.23;57.77;99981.97;1711626;83;21152;-59
2021/03/25 05:28:09;;;;;;;10.03;5.70;;;;;;;-0.20;57.26;99968.92;1681624;85;21196;-59
2021/03/25 05:30:39;;;;;;;10.20;5.17;;;;;;;-0.10;57.33;99977.45;1681099;85;21398;-61
2021/03/25 05:33:14;;;;;;;14.60;6.33;;;;;;;-0.06;57.03;99983.54;1657728;85;21139;-62
2021/03/25 05:35:58;;;;;;;14.37;6.73;;;;;;;-0.03;57.02;99976.57;1683136;85;21200;-62
2021/03/25 05:38:26;;;;;;;7.30;5.17;;;;;;;0.06;56.83;99981.80;1680529;85;21172;-61
2021/03/25 05:41:08;;;;;;;8.43;5.23;;;;;;;0.16;56.68;99983.22;1661852;84;21217;-60
2021/03/25 05:44:33;;;;;;;8.30;4.73;;;;;;;0.20;56.25;99984.52;1707154;83;21155;-61
2021/03/25 05:47:35;;;;;;;9.30;4.40;;;;;;;0.24;56.30;99988.97;1664683;85;21604;-61
2021/03/25 05:50:39;;;;;;;7.17;5.97;;;;;;;0.34;56.29;99990.86;1664553;86;21632;-61
2021/03/25 05:53:31;;;;;;;9.80;5.57;;;;;;;0.43;56.14;99989.30;1707162;84;21163;-61
2021/03/25 05:56:23;;;;;;;7.43;5.50;;;;;;;0.49;55.64;99983.80;1707097;84;21217;-60
2021/03/25 05:58:55;;;;;;;9.60;6.47;;;;;;;0.59;55.80;99986.20;1726680;82;22745;-61
2021/03/25 06:01:41;;;;;;;6.83;4.80;;;;;;;0.67;55.13;99994.09;1732169;82;21043;-59
2021/03/25 06:04:31;;;;;;;9.90;5.47;;;;;;;0.71;54.96;99990.91;1689650;82;21618;-61
2021/03/25 06:07:38;;;;;;;6.90;3.80;;;;;;;0.78;54.69;99996.29;1735802;82;21059;-60
2021/03/25 06:10:15;;;;;;;7.03;5.07;;;;;;;0.88;54.50;99998.19;1736516;82;21130;-59
2021/03/25 06:13:26;;;;;;;7.50;4.80;;;;;;;0.96;54.51;99995.98;1736400;82;21131;-63
2021/03/25 06:16:23;;;;;;;11.50;4.73;;;;;;;1.05;54.55;99997.55;1736381;82;21178;-62
2021/03/25 06:19:33;;;;;;;8.33;4.67;;;;;;;1.17;54.53;99994.26;1731334;82;21103;-63
2021/03/25 06:22:23;;;;;;;5.80;4.57;;;;;;;1.29;54.20;99995.96;1723947;82;21133;-61
2021/03/25 06:25:29;;;;;;;9.00;5.40;;;;;;;1.39;53.68;100004.97;1733408;82;21170;-62
2021/03/25 06:28:39;;;;;;;7.97;5.97;;;;;;;1.48;53.40;99998.56;1705855;83;21657;-63
2021/03/25 06:31:39;;;;;;;6.00;4.23;;;;;;;1.57;53.00;99998.28;1660850;86;21186;-59
2021/03/25 06:34:21;;;;;;;8.90;6.47;;;;;;;1.68;52.80;100000.44;1719971;82;21042;-61
2021/03/25 06:37:17;;;;;;;8.43;4.57;;;;;;;1.77;52.46;99999.03;1725292;82;21078;-60
2021/03/25 06:39:55;;;;;;;12.67;4.57;;;;;;;1.85;51.97;99989.64;1741218;81;21169;-59
2021/03/25 06:42:32;;;;;;;8.07;4.47;;;;;;;1.96;51.73;99997.95;1720431;83;22068;-62
2021/03/25 06:45:33;;;;;;;7.47;4.93;;;;;;;2.05;51.15;99999.98;1735817;82;21197;-60
2021/03/25 06:48:23;;;;;;;9.87;6.10;;;;;;;2.14;51.09;99993.05;1750320;82;21189;-62
2021/03/25 06:50:53;;;;;;;5.00;4.17;;;;;;;2.26;50.88;99998.66;1750122;82;21611;-61
2021/03/25 06:53:33;;;;;;;6.40;4.37;;;;;;;2.34;50.29;99993.25;1749759;82;21170;-60
2021/03/25 06:56:08;;;;;;;7.63;5.00;;;;;;;2.41;49.86;99990.64;1722622;82;21415;-60
2021/03/25 06:58:53;;;;;;;6.27;3.80;;;;;;;2.47;49.82;99990.71;1720520;83;21170;-60
2021/03/25 07:01:34;;;;;;;8.63;5.93;;;;;;;2.52;49.68;99978.20;1721275;82;21067;-61
2021/03/25 07:04:19;;;;;;;8.87;5.77;;;;;;;2.61;49.39;99985.02;1720585;83;21015;-62
2021/03/25 07:06:47;;;;;;;6.93;4.30;;;;;;;2.69;49.80;99981.38;1722364;82;21149;-61
2021/03/25 07:09:16;;;;;;;9.90;3.77;;;;;;;2.80;49.16;99983.53;1750418;82;21213;-61
2021/03/25 07:11:43;;;;;;;9.73;4.83;;;;;;;2.90;48.75;99984.02;1750465;82;21173;-60
2021/03/25 07:14:18;;;;;;;5.95;2.92;;;;;;;2.99;48.13;99987.66;1723471;82;21022;-61
2021/03/25 07:16:47;;;;;;;7.03;4.50;;;;;;;3.06;46.97;99985.89;1750068;82;21156;-61
2021/03/25 07:19:20;;;;;;;10.35;5.67;;;;;;;3.16;46.42;99984.72;1750436;81;21109;-60
2021/03/25 07:21:51;;;;;;;4.87;3.25;;;;;;;3.24;45.74;99979.24;1723551;82;21129;-60
2021/03/25 07:24:34;;;;;;;4.55;3.40;;;;;;;3.31;44.75;99982.24;1720628;83;21205;-61
2021/03/25 07:27:12;;;;;;;6.50;3.83;;;;;;;3.41;44.77;99967.27;1724990;82;21228;-60
2021/03/25 07:29:42;;;;;;;3.52;2.65;;;;;;;3.47;43.42;99965.98;1750166;82;21141;-60
2021/03/25 07:32:14;;;;;;;3.33;2.75;;;;;;;3.53;42.50;99987.48;1750189;82;21141;-61
2021/03/25 07:34:49;;;;;;;6.53;2.72;;;;;;;3.55;41.56;99974.29;1750452;82;21372;-61
2021/03/25 07:37:36;;;;;;;5.92;3.58;;;;;;;3.61;41.02;99971.36;1747115;82;21586;-61
2021/03/25 07:40:36;;;;;;;6.05;3.45;;;;;;;3.69;41.73;99971.20;1744596;82;21559;-61
2021/03/25 07:43:24;;;;;;;3.47;2.87;;;;;;;3.76;41.62;99974.19;1736470;82;21555;-62
2021/03/25 07:46:33;;;;;;;8.38;3.05;;;;;;;3.84;41.18;99976.67;1735770;82;21178;-62
2021/03/25 07:49:17;;;;;;;6.97;2.80;;;;;;;3.91;38.82;99976.20;1671251;83;21429;-62
2021/03/25 07:52:05;;;;;;;12.63;7.37;;;;;;;3.97;38.94;99972.42;1707004;84;21138;-59
2021/03/25 07:54:39;;;;;;;15.00;8.03;;;;;;;4.02;39.34;99962.00;1707106;83;21145;-60
2021/03/25 07:57:19;;;;;;;5.47;3.12;;;;;;;4.11;38.90;99973.59;1735105;82;21635;-61
2021/03/25 07:59:58;;;;;;;4.40;3.12;;;;;;;4.20;38.41;99956.92;1736561;82;21649;-61
2021/03/25 08:02:37;;;;;;;5.03;4.15;;;;;;;4.25;37.00;99957.96;1736738;82;22258;-60
2021/03/25 08:05:29;;;;;;;11.65;6.15;;;;;;;4.27;37.72;99964.39;1737030;82;21230;-62
2021/03/25 08:08:06;;;;;;;8.73;3.65;;;;;;;4.24;36.55;99960.81;1709041;82;21594;-64
2021/03/25 08:10:43;;;;;;;7.37;3.85;;;;;;;4.19;37.43;99972.07;1710923;82;21206;-61
2021/03/25 08:13:27;;;;;;;6.55;4.08;;;;;;;4.22;38.00;99966.33;1732987;82;21153;-63
2021/03/25 08:16:07;;;;;;;6.50;3.15;;;;;;;4.27;38.58;99967.88;1707061;84;21207;-61
2021/03/25 08:19:05;;;;;;;11.85;3.77;;;;;;;4.36;37.57;99957.34;1660964;86;21189;-60
2021/03/25 08:22:07;;;;;;;9.73;4.70;;;;;;;4.43;36.73;99962.69;1736296;81;21134;-61
2021/03/25 08:24:57;;;;;;;7.70;4.70;;;;;;;4.51;37.38;99967.80;1735372;82;21000;-60
2021/03/25 08:27:48;;;;;;;12.23;5.87;;;;;;;4.58;37.21;99965.16;1736406;81;21189;-61
2021/03/25 08:30:48;;;;;;;10.30;5.25;;;;;;;4.60;38.17;99971.12;1736695;82;22307;-61
2021/03/25 08:33:47;;;;;;;11.40;3.22;;;;;;;4.59;38.13;99967.62;1735482;82;20992;-61
2021/03/25 08:36:50;;;;;;;6.95;2.87;;;;;;;4.65;36.88;99976.66;1736558;82;21186;-60
2021/03/25 08:39:47;;;;;;;7.25;3.67;;;;;;;4.73;36.08;99973.27;1735892;82;21150;-62
2021/03/25 08:42:43;;;;;;;11.97;3.42;;;;;;;4.79;36.12;99989.77;1705445;82;21209;-60
2021/03/25 08:45:39;;;;;;;5.35;3.75;;;;;;;4.83;36.42;99973.67;1693226;84;21334;-61
2021/03/25 08:48:27;;;;;;;5.90;3.75;;;;;;;4.89;36.54;99980.03;1692367;84;21606;-61
2021/03/25 08:51:09;;;;;;;3.65;2.87;;;;;;;4.94;37.31;99968.75;1686382;82;21061;-60
2021/03/25 08:53:56;;;;;;;7.58;4.20;;;;;;;4.94;37.30;99974.09;1707105;83;21122;-61
2021/03/25 08:56:50;;;;;;;3.98;3.37;;;;;;;4.94;36.57;99962.09;1707217;84;21134;-63
2021/03/25 08:59:21;;;;;;;;;;;;;;;5.00;37.32;99966.58;1722693;82;21349;-62
2021/03/25 09:01:55;;;;;;;5.87;3.52;;;;;;;5.08;37.02;99963.20;1736216;82;20269;-62
2021/03/25 09:04:24;;;;;;;10.78;3.55;;;;;;;5.17;37.28;99961.95;1736560;82;21173;-63
2021/03/25 09:06:52;;;;;;;5.25;3.05;;;;;;;5.21;37.10;99968.50;1736558;82;21142;-62
2021/03/25 09:09:40;;;;;;;6.20;3.52;;;;;;;5.19;37.08;99963.87;1736535;82;21134;-61
2021/03/25 09:12:11;;;;;;;3.98;2.98;;;;;;;5.19;37.32;99967.05;1735707;82;21382;-60
2021/03/25 09:14:40;;;;;;;3.72;3.02;;;;;;;5.23;37.67;99958.94;1736653;82;21217;-60
2021/03/25 09:17:17;;;;;;;7.05;3.40;;;;;;;5.27;37.68;99956.98;1726463;82;21205;-61
2021/03/25 09:19:49;;;;;;;4.92;3.35;;;;;;;5.38;37.42;99972.86;1661167;86;21074;-62
2021/03/25 09:22:47;;;;;;;4.67;3.00;;;;;;;5.45;37.10;99966.19;1668066;84;21184;-60
2021/03/25 09:25:31;;;;;;;4.70;2.83;;;;;;;5.49;36.22;99955.40;1665466;86;23536;-63
2021/03/25 09:28:03;;;;;;;4.50;2.75;;;;;;;5.62;36.32;99958.01;1665407;86;21229;-61
2021/03/25 09:30:59;;;;;;;6.03;2.37;;;;;;;5.73;35.79;99960.03;1701562;84;21113;-61
2021/03/25 09:33:55;;;;;;;5.35;2.95;;;;;;;5.79;33.89;99949.85;1662398;84;21137;-62
2021/03/25 09:36:38;;;;;;;5.15;3.10;;;;;;;5.89;34.89;99962.77;1689727;82;21200;-61
2021/03/25 09:39:18;;;;;;;4.53;2.20;;;;;;;6.03;34.47;99951.81;1701963;84;20999;-60
2021/03/25 09:41:46;;;;;;;4.97;2.90;;;;;;;6.01;33.82;99961.05;1699769;82;21244;-61
2021/03/25 09:44:20;;;;;;;2.67;2.47;;;;;;;6.01;33.82;99961.05;1687577;82;21212;-60
2021/03/25 09:47:00;;;;;;;3.37;2.47;;;;;;;6.03;32.62;99946.48;1688883;82;21062;-61
2021/03/25 09:49:58;;;;;;;8.90;4.08;;;;;;;6.10;33.95;99951.25;1736552;82;21182;-61
2021/03/25 09:52:38;;;;;;;3.20;2.77;;;;;;;6.17;33.44;99949.88;1736292;82;21444;-60
2021/03/25 09:55:20;;;;;;;5.27;2.60;;;;;;;6.26;33.86;99957.94;1819140;78;23743;-60
2021/03/25 09:57:52;;;;;;;3.37;2.35;;;;;;;6.27;33.90;99948.08;1792174;80;21063;-64
2021/03/25 10:00:28;;;;;;;5.75;3.75;;;;;;;6.36;33.87;99946.78;1805403;79;21203;-60
2021/03/25 10:03:04;;;;;;;6.58;3.12;;;;;;;6.39;33.45;99958.36;1796889;79;20978;-62
2021/03/25 10:05:39;;;;;;;8.13;3.22;;;;;;;6.45;34.09;99960.17;1788243;80;20970;-62
2021/03/25 10:08:16;;;;;;;5.87;2.30;;;;;;;6.50;33.95;99957.16;1788063;80;21029;-65
2021/03/25 10:11:00;;;;;;;6.28;3.45;;;;;;;6.57;33.28;99946.40;1791318;79;21037;-61
2021/03/25 10:13:40;;;;;;;4.90;3.45;;;;;;;6.60;33.77;99955.84;1788542;80;20959;-60
2021/03/25 10:16:37;;;;;;;3.72;3.15;;;;;;;6.63;33.44;99946.88;1788131;80;21057;-60
2021/03/25 10:19:11;;;;;;;5.30;3.22;;;;;;;6.67;32.40;99955.27;1790494;79;21046;-62
2021/03/25 10:22:01;;;;;;;8.38;3.42;;;;;;;6.70;32.80;99947.66;1796075;79;21156;-62
2021/03/25 10:24:36;;;;;;;6.20;3.50;;;;;;;6.75;33.44;99953.16;1791978;80;21152;-60
2021/03/25 10:27:34;;;;;;;4.65;3.35;;;;;;;6.80;33.84;99953.84;1771402;80;21505;-62
2021/03/25 10:30:20;;;;;;;7.97;4.05;;;;;;;6.88;33.78;99943.69;1756915;81;21174;-61
2021/03/25 10:32:50;;;;;;;3.00;2.70;;;;;;;6.86;33.18;99944.92;1759161;81;21026;-63
2021/03/25 10:35:32;;;;;;;13.32;8.78;;;;;;;6.84;33.74;99942.49;1760779;81;21125;-62
2021/03/25 10:38:06;;;;;;;5.08;4.30;;;;;;;6.86;34.31;99938.23;1743382;81;26958;-61
2021/03/25 10:40:37;;;;;;;6.17;3.62;;;;;;;6.91;33.64;99942.41;1738656;81;21431;-62
2021/03/25 10:43:17;;;;;;;6.65;3.75;;;;;;;6.97;33.18;99936.19;1741497;81;21685;-61
2021/03/25 10:45:56;;;;;;;4.30;3.75;;;;;;;7.00;33.32;99927.20;1745879;80;21031;-63
2021/03/25 10:48:33;;;;;;;6.87;3.95;;;;;;;7.06;34.23;99934.05;1742797;81;21156;-62
2021/03/25 10:51:15;;;;;;;5.75;3.70;;;;;;;7.14;34.07;99938.61;1745355;80;21181;-62
2021/03/25 10:53:51;;;;;;;9.58;4.70;;;;;;;7.18;34.17;99929.10;1757024;80;21413;-61
2021/03/25 10:56:28;;;;;;;5.30;3.30;;;;;;;7.19;33.42;99920.56;1766407;80;21594;-61
2021/03/25 10:59:16;;;;;;;3.27;2.52;;;;;;;7.24;33.21;99920.17;1803868;79;21054;-61
2021/03/25 11:01:55;;;;;;;4.92;3.45;;;;;;;7.22;33.47;99918.77;1768254;80;21156;-62
2021/03/25 11:04:32;;;;;;;5.25;3.55;;;;;;;7.24;33.87;99922.84;1764448;81;21197;-63
2021/03/25 11:07:18;;;;;;;2.55;2.35;;;;;;;7.37;32.92;99921.89;1764037;81;21049;-62
2021/03/25 11:09:57;;;;;;;9.38;4.05;;;;;;;7.45;32.74;99921.59;1764021;81;21168;-63
2021/03/25 11:12:30;;;;;;;3.65;2.65;;;;;;;7.51;33.11;99915.86;1735189;82;20989;-63
2021/03/25 11:14:59;;;;;;;;;;;;;;;7.55;32.91;99914.38;1737746;82;21131;-61
2021/03/25 11:17:31;;;;;;;6.70;4.08;;;;;;;7.65;32.12;99911.98;1750428;81;20200;-63
2021/03/25 11:20:02;;;;;;;5.92;3.85;;;;;;;7.68;32.09;99913.68;1764268;81;21204;-61
2021/03/25 11:22:31;;;;;;;2.95;2.65;;;;;;;7.74;30.74;99921.34;1765414;81;21122;-62
2021/03/25 11:25:00;;;;;;;6.97;3.70;;;;;;;7.76;31.47;99909.89;1764857;81;21204;-62
2021/03/25 11:27:28;;;;;;;5.35;4.08;;;;;;;7.70;32.27;99909.45;1762197;80;21176;-62
2021/03/25 11:30:10;;;;;;;2.15;2.00;;;;;;;7.74;32.27;99913.30;1737988;81;21193;-62
2021/03/25 11:32:45;;;;;;;5.65;2.83;;;;;;;7.87;31.77;99899.73;1872913;76;27378;-61
2021/03/25 11:35:26;;;;;;;4.67;2.70;;;;;;;7.85;31.43;99899.16;1860011;77;20927;-62
2021/03/25 11:37:56;;;;;;;4.37;3.03;;;;;;;7.87;30.95;99899.22;1823820;77;21395;-67
2021/03/25 11:40:42;;;;;;;4.08;2.42;;;;;;;7.92;31.05;99897.71;1817062;79;21788;-61
2021/03/25 11:43:18;;;;;;;2.72;2.42;;;;;;;7.95;30.34;99909.33;1817178;79;21570;-64
2021/03/25 11:45:51;;;;;;;3.27;3.02;;;;;;;7.95;30.46;99903.97;1817153;78;21007;-63
2021/03/25 11:48:29;;;;;;;7.22;3.00;;;;;;;7.97;30.86;99893.31;1799332;79;20934;-64
2021/03/25 11:51:21;;;;;;;6.85;3.27;;;;;;;8.05;30.12;99901.56;1783786;80;21376;-63
2021/03/25 11:53:51;;;;;;;6.85;3.98;;;;;;;8.07;30.59;99902.14;1783717;80;21035;-63
2021/03/25 11:56:37;;;;;;;5.78;3.17;;;;;;;8.13;30.76;99891.34;1783649;80;21018;-62
2021/03/25 11:59:16;;;;;;;5.80;3.17;;;;;;;8.17;30.92;99890.34;1809151;78;21051;-61
2021/03/25 12:01:44;;;;;;;6.78;2.98;;;;;;;8.21;30.32;99897.70;1779872;79;21200;-61
2021/03/25 12:04:24;;;;;;;8.53;4.58;;;;;;;8.30;30.24;99892.84;1774627;80;21188;-64
2021/03/25 12:07:13;;;;;;;3.50;3.20;;;;;;;8.39;29.85;99878.61;1802188;79;21042;-62
2021/03/25 12:10:13;;;;;;;7.55;3.37;;;;;;;8.40;29.46;99886.92;1802193;79;21058;-61
2021/03/25 12:12:43;;;;;;;6.55;3.20;;;;;;;8.45;29.54;99877.15;1676843;85;21294;-63
2021/03/25 12:15:14;;;;;;;3.85;3.35;;;;;;;8.48;28.20;99882.59;1753290;81;21018;-62
2021/03/25 12:18:04;;;;;;;4.70;3.20;;;;;;;8.44;27.48;99877.41;1770818;81;21364;-62
2021/03/25 12:20:39;;;;;;;5.58;3.40;;;;;;;8.50;27.73;99883.16;1780653;78;21267;-63
2021/03/25 12:23:26;;;;;;;5.45;3.65;;;;;;;8.54;27.55;99883.80;1833260;78;21591;-67
2021/03/25 12:25:56;;;;;;;6.47;4.72;;;;;;;8.62;27.77;99882.66;1816933;79;21106;-63
2021/03/25 12:28:24;;;;;;;6.78;3.50;;;;;;;8.69;28.35;99880.14;1788228;80;21551;-62
2021/03/25 12:30:52;;;;;;;5.62;4.33;;;;;;;8.77;28.96;99878.17;1781138;79;21371;-64
2021/03/25 12:33:32;;;;;;;9.53;3.98;;;;;;;8.80;28.23;99880.38;1752581;81;21185;-60
2021/03/25 12:36:01;;;;;;;9.70;5.03;;;;;;;8.80;28.69;99873.16;1780333;80;21169;-66